sensor_id;sensor_type;location;lat;lon;timestamp;P1;durP1;ratioP1;P2;durP2;ratioP2
55069;SDS011;40967;52.070;8.596;2023-08-17T00:00:59;1.20;;;0.50;;
55069;SDS011;40967;52.070;8.596;2023-08-17T00:03:24;1.03;;;0.50;;
55069;SDS011;40967;52.070;8.596;2023-08-17T00:05:49;1.50;;;0.60;;
55069;SDS011;40967;52.070;8.596;2023-08-17T00:08:15;1.77;;;0.60;;
55069;SDS011;40967;52.070;8.596;2023-08-17T00:10:40;2.07;;;0.50;;
55069;SDS011;40967;52.070;8.596;2023-08-17T00:13:05;1.10;;;0.60;;
55069;SDS011;40967;52.070;8.596;2023-08-17T00:15:31;0.97;;;0.63;;
55069;SDS011;40967;52.070;8.596;2023-08-17T00:17:57;1.10;;;0.55;;
55069;SDS011;40967;52.070;8.596;2023-08-17T00:20:22;0.70;;;0.50;;
55069;SDS011;40967;52.070;8.596;2023-08-17T00:22:48;1.10;;;0.40;;
55069;SDS011;40967;52.070;8.596;2023-08-17T00:25:14;0.93;;;0.60;;
55069;SDS011;40967;52.070;8.596;2023-08-17T00:27:39;0.80;;;0.50;;
55069;SDS011;40967;52.070;8.596;2023-08-17T00:30:05;0.53;;;0.50;;
55069;SDS011;40967;52.070;8.596;2023-08-17T00:32:31;0.63;;;0.40;;
55069;SDS011;40967;52.070;8.596;2023-08-17T00:34:56;0.77;;;0.30;;
55069;SDS011;40967;52.070;8.596;2023-08-17T00:37:21;0.63;;;0.50;;
55069;SDS011;40967;52.070;8.596;2023-08-17T00:39:47;1.30;;;0.50;;
55069;SDS011;40967;52.070;8.596;2023-08-17T00:42:12;0.90;;;0.57;;
55069;SDS011;40967;52.070;8.596;2023-08-17T00:44:37;1.10;;;0.60;;
55069;SDS011;40967;52.070;8.596;2023-08-17T00:47:03;0.63;;;0.50;;
55069;SDS011;40967;52.070;8.596;2023-08-17T00:49:29;1.83;;;0.60;;
55069;SDS011;40967;52.070;8.596;2023-08-17T00:51:55;0.60;;;0.50;;
55069;SDS011;40967;52.070;8.596;2023-08-17T00:54:23;1.05;;;0.40;;
55069;SDS011;40967;52.070;8.596;2023-08-17T00:56:50;0.60;;;0.47;;
55069;SDS011;40967;52.070;8.596;2023-08-17T00:59:21;1.00;;;0.50;;
55069;SDS011;40967;52.070;8.596;2023-08-17T01:01:48;1.10;;;0.47;;
55069;SDS011;40967;52.070;8.596;2023-08-17T01:04:14;0.60;;;0.50;;
55069;SDS011;40967;52.070;8.596;2023-08-17T01:06:39;1.03;;;0.53;;
55069;SDS011;40967;52.070;8.596;2023-08-17T01:09:05;0.87;;;0.50;;
55069;SDS011;40967;52.070;8.596;2023-08-17T01:11:41;0.55;;;0.40;;
55069;SDS011;40967;52.070;8.596;2023-08-17T01:17:22;1.42;;;0.70;;
55069;SDS011;40967;52.070;8.596;2023-08-17T01:19:52;1.45;;;0.60;;
55069;SDS011;40967;52.070;8.596;2023-08-17T01:22:21;0.68;;;0.50;;
55069;SDS011;40967;52.070;8.596;2023-08-17T01:24:47;2.00;;;0.60;;
55069;SDS011;40967;52.070;8.596;2023-08-17T01:27:13;1.47;;;0.70;;
55069;SDS011;40967;52.070;8.596;2023-08-17T01:29:38;1.50;;;0.70;;
55069;SDS011;40967;52.070;8.596;2023-08-17T01:32:09;1.80;;;0.60;;
55069;SDS011;40967;52.070;8.596;2023-08-17T01:34:44;1.23;;;0.73;;
55069;SDS011;40967;52.070;8.596;2023-08-17T01:37:15;0.80;;;0.60;;
55069;SDS011;40967;52.070;8.596;2023-08-17T01:39:44;1.80;;;0.68;;
55069;SDS011;40967;52.070;8.596;2023-08-17T01:42:14;0.83;;;0.60;;
55069;SDS011;40967;52.070;8.596;2023-08-17T01:44:41;1.30;;;0.70;;
55069;SDS011;40967;52.070;8.596;2023-08-17T01:47:07;1.17;;;0.75;;
55069;SDS011;40967;52.070;8.596;2023-08-17T01:49:32;1.23;;;0.60;;
55069;SDS011;40967;52.070;8.596;2023-08-17T01:51:57;0.93;;;0.60;;
55069;SDS011;40967;52.070;8.596;2023-08-17T01:54:23;1.80;;;0.70;;
55069;SDS011;40967;52.070;8.596;2023-08-17T01:56:49;1.35;;;0.60;;
55069;SDS011;40967;52.070;8.596;2023-08-17T01:59:14;0.75;;;0.60;;
55069;SDS011;40967;52.070;8.596;2023-08-17T02:01:39;2.23;;;0.70;;
55069;SDS011;40967;52.070;8.596;2023-08-17T02:04:05;1.60;;;0.60;;
55069;SDS011;40967;52.070;8.596;2023-08-17T02:06:34;1.33;;;0.60;;
55069;SDS011;40967;52.070;8.596;2023-08-17T02:08:59;2.33;;;0.53;;
55069;SDS011;40967;52.070;8.596;2023-08-17T02:11:24;1.40;;;0.63;;
55069;SDS011;40967;52.070;8.596;2023-08-17T02:13:50;1.57;;;0.50;;
55069;SDS011;40967;52.070;8.596;2023-08-17T02:16:15;0.93;;;0.53;;
55069;SDS011;40967;52.070;8.596;2023-08-17T02:18:41;1.10;;;0.50;;
55069;SDS011;40967;52.070;8.596;2023-08-17T02:21:06;0.70;;;0.40;;
55069;SDS011;40967;52.070;8.596;2023-08-17T02:23:31;1.10;;;0.50;;
55069;SDS011;40967;52.070;8.596;2023-08-17T02:25:57;0.90;;;0.60;;
55069;SDS011;40967;52.070;8.596;2023-08-17T02:28:22;1.13;;;0.67;;
55069;SDS011;40967;52.070;8.596;2023-08-17T02:30:47;0.95;;;0.60;;
55069;SDS011;40967;52.070;8.596;2023-08-17T02:33:14;1.23;;;0.50;;
55069;SDS011;40967;52.070;8.596;2023-08-17T02:35:42;0.70;;;0.50;;
55069;SDS011;40967;52.070;8.596;2023-08-17T02:38:07;0.95;;;0.50;;
55069;SDS011;40967;52.070;8.596;2023-08-17T02:40:33;0.60;;;0.40;;
55069;SDS011;40967;52.070;8.596;2023-08-17T02:43:01;1.17;;;0.50;;
55069;SDS011;40967;52.070;8.596;2023-08-17T02:45:27;0.90;;;0.50;;
55069;SDS011;40967;52.070;8.596;2023-08-17T02:47:52;1.20;;;0.50;;
55069;SDS011;40967;52.070;8.596;2023-08-17T02:50:17;0.70;;;0.50;;
55069;SDS011;40967;52.070;8.596;2023-08-17T02:52:43;1.00;;;0.50;;
55069;SDS011;40967;52.070;8.596;2023-08-17T02:55:08;0.80;;;0.57;;
55069;SDS011;40967;52.070;8.596;2023-08-17T02:57:34;0.80;;;0.40;;
55069;SDS011;40967;52.070;8.596;2023-08-17T02:59:59;1.27;;;0.60;;
55069;SDS011;40967;52.070;8.596;2023-08-17T03:02:24;0.63;;;0.50;;
55069;SDS011;40967;52.070;8.596;2023-08-17T03:04:50;0.70;;;0.50;;
55069;SDS011;40967;52.070;8.596;2023-08-17T03:07:18;1.20;;;0.50;;
55069;SDS011;40967;52.070;8.596;2023-08-17T03:09:44;0.45;;;0.40;;
55069;SDS011;40967;52.070;8.596;2023-08-17T03:12:09;1.03;;;0.53;;
55069;SDS011;40967;52.070;8.596;2023-08-17T03:14:34;0.77;;;0.50;;
55069;SDS011;40967;52.070;8.596;2023-08-17T03:17:03;0.80;;;0.50;;
55069;SDS011;40967;52.070;8.596;2023-08-17T03:19:29;0.77;;;0.50;;
55069;SDS011;40967;52.070;8.596;2023-08-17T03:21:54;1.35;;;0.70;;
55069;SDS011;40967;52.070;8.596;2023-08-17T03:24:19;1.92;;;0.70;;
55069;SDS011;40967;52.070;8.596;2023-08-17T03:26:45;0.75;;;0.50;;
55069;SDS011;40967;52.070;8.596;2023-08-17T03:29:10;1.02;;;0.52;;
55069;SDS011;40967;52.070;8.596;2023-08-17T03:31:35;0.73;;;0.38;;
55069;SDS011;40967;52.070;8.596;2023-08-17T03:34:01;0.95;;;0.52;;
55069;SDS011;40967;52.070;8.596;2023-08-17T03:36:27;1.40;;;0.65;;
55069;SDS011;40967;52.070;8.596;2023-08-17T03:38:53;1.70;;;0.80;;
55069;SDS011;40967;52.070;8.596;2023-08-17T03:41:18;1.63;;;0.80;;
55069;SDS011;40967;52.070;8.596;2023-08-17T03:43:43;0.80;;;0.60;;
55069;SDS011;40967;52.070;8.596;2023-08-17T03:46:09;1.00;;;0.70;;
55069;SDS011;40967;52.070;8.596;2023-08-17T03:48:34;1.70;;;0.77;;
55069;SDS011;40967;52.070;8.596;2023-08-17T03:51:00;1.33;;;0.70;;
55069;SDS011;40967;52.070;8.596;2023-08-17T03:53:26;1.10;;;0.70;;
55069;SDS011;40967;52.070;8.596;2023-08-17T03:55:52;1.00;;;0.60;;
55069;SDS011;40967;52.070;8.596;2023-08-17T03:58:17;1.40;;;0.60;;
55069;SDS011;40967;52.070;8.596;2023-08-17T04:00:49;1.73;;;0.70;;
55069;SDS011;40967;52.070;8.596;2023-08-17T04:03:16;1.38;;;0.80;;
55069;SDS011;40967;52.070;8.596;2023-08-17T04:05:41;2.10;;;1.10;;
55069;SDS011;40967;52.070;8.596;2023-08-17T04:08:07;1.70;;;0.90;;
55069;SDS011;40967;52.070;8.596;2023-08-17T04:10:32;1.30;;;0.80;;
55069;SDS011;40967;52.070;8.596;2023-08-17T04:12:57;2.37;;;0.90;;
55069;SDS011;40967;52.070;8.596;2023-08-17T04:15:23;2.38;;;0.93;;
55069;SDS011;40967;52.070;8.596;2023-08-17T04:17:48;1.15;;;0.75;;
55069;SDS011;40967;52.070;8.596;2023-08-17T04:20:16;1.23;;;0.70;;
55069;SDS011;40967;52.070;8.596;2023-08-17T04:22:43;1.50;;;0.80;;
55069;SDS011;40967;52.070;8.596;2023-08-17T04:25:08;1.70;;;0.90;;
55069;SDS011;40967;52.070;8.596;2023-08-17T04:27:34;1.73;;;1.00;;
55069;SDS011;40967;52.070;8.596;2023-08-17T04:30:00;1.93;;;1.10;;
55069;SDS011;40967;52.070;8.596;2023-08-17T04:32:25;1.90;;;0.90;;
55069;SDS011;40967;52.070;8.596;2023-08-17T04:34:51;2.00;;;0.90;;
55069;SDS011;40967;52.070;8.596;2023-08-17T04:37:16;1.67;;;0.80;;
55069;SDS011;40967;52.070;8.596;2023-08-17T04:39:42;1.98;;;0.93;;
55069;SDS011;40967;52.070;8.596;2023-08-17T04:42:08;1.33;;;0.73;;
55069;SDS011;40967;52.070;8.596;2023-08-17T04:44:34;1.50;;;0.90;;
55069;SDS011;40967;52.070;8.596;2023-08-17T04:47:03;1.65;;;0.88;;
55069;SDS011;40967;52.070;8.596;2023-08-17T04:49:28;1.40;;;0.70;;
55069;SDS011;40967;52.070;8.596;2023-08-17T04:51:53;1.73;;;0.88;;
55069;SDS011;40967;52.070;8.596;2023-08-17T04:54:19;0.90;;;0.70;;
55069;SDS011;40967;52.070;8.596;2023-08-17T04:56:44;1.50;;;0.90;;
55069;SDS011;40967;52.070;8.596;2023-08-17T04:59:10;2.13;;;0.93;;
55069;SDS011;40967;52.070;8.596;2023-08-17T05:01:35;1.40;;;0.70;;
55069;SDS011;40967;52.070;8.596;2023-08-17T05:04:02;1.00;;;0.80;;
55069;SDS011;40967;52.070;8.596;2023-08-17T05:06:28;1.70;;;0.70;;
55069;SDS011;40967;52.070;8.596;2023-08-17T05:08:53;1.00;;;0.70;;
55069;SDS011;40967;52.070;8.596;2023-08-17T05:11:19;1.23;;;0.80;;
55069;SDS011;40967;52.070;8.596;2023-08-17T05:13:44;1.33;;;0.83;;
55069;SDS011;40967;52.070;8.596;2023-08-17T05:16:10;1.70;;;0.90;;
55069;SDS011;40967;52.070;8.596;2023-08-17T05:18:35;1.67;;;0.97;;
55069;SDS011;40967;52.070;8.596;2023-08-17T05:21:00;1.47;;;0.80;;
55069;SDS011;40967;52.070;8.596;2023-08-17T05:23:26;1.73;;;0.80;;
55069;SDS011;40967;52.070;8.596;2023-08-17T05:25:51;2.10;;;0.97;;
55069;SDS011;40967;52.070;8.596;2023-08-17T05:28:16;1.30;;;0.80;;
55069;SDS011;40967;52.070;8.596;2023-08-17T05:30:42;1.50;;;0.70;;
55069;SDS011;40967;52.070;8.596;2023-08-17T05:33:08;1.17;;;0.68;;
55069;SDS011;40967;52.070;8.596;2023-08-17T05:35:33;1.77;;;1.00;;
55069;SDS011;40967;52.070;8.596;2023-08-17T05:37:59;1.40;;;0.80;;
55069;SDS011;40967;52.070;8.596;2023-08-17T05:40:24;1.30;;;0.65;;
55069;SDS011;40967;52.070;8.596;2023-08-17T05:42:50;1.10;;;0.75;;
55069;SDS011;40967;52.070;8.596;2023-08-17T05:45:15;1.43;;;0.87;;
55069;SDS011;40967;52.070;8.596;2023-08-17T05:47:41;1.23;;;0.73;;
55069;SDS011;40967;52.070;8.596;2023-08-17T05:50:06;1.47;;;0.80;;
55069;SDS011;40967;52.070;8.596;2023-08-17T05:52:32;1.48;;;0.80;;
55069;SDS011;40967;52.070;8.596;2023-08-17T05:54:58;1.70;;;0.98;;
55069;SDS011;40967;52.070;8.596;2023-08-17T05:57:23;1.10;;;0.80;;
55069;SDS011;40967;52.070;8.596;2023-08-17T05:59:48;1.90;;;0.80;;
55069;SDS011;40967;52.070;8.596;2023-08-17T06:02:14;1.40;;;0.82;;
55069;SDS011;40967;52.070;8.596;2023-08-17T06:04:39;1.65;;;0.90;;
55069;SDS011;40967;52.070;8.596;2023-08-17T06:07:05;1.23;;;0.68;;
55069;SDS011;40967;52.070;8.596;2023-08-17T06:09:31;1.70;;;0.90;;
55069;SDS011;40967;52.070;8.596;2023-08-17T06:11:56;1.60;;;1.00;;
55069;SDS011;40967;52.070;8.596;2023-08-17T06:14:22;1.10;;;0.83;;
55069;SDS011;40967;52.070;8.596;2023-08-17T06:16:50;1.40;;;1.00;;
55069;SDS011;40967;52.070;8.596;2023-08-17T06:19:16;2.00;;;1.00;;
55069;SDS011;40967;52.070;8.596;2023-08-17T06:21:41;1.70;;;0.70;;
55069;SDS011;40967;52.070;8.596;2023-08-17T06:24:06;1.77;;;0.83;;
55069;SDS011;40967;52.070;8.596;2023-08-17T06:26:32;1.33;;;0.90;;
55069;SDS011;40967;52.070;8.596;2023-08-17T06:28:57;2.63;;;1.10;;
55069;SDS011;40967;52.070;8.596;2023-08-17T06:31:23;2.07;;;1.03;;
55069;SDS011;40967;52.070;8.596;2023-08-17T06:33:52;1.63;;;0.98;;
55069;SDS011;40967;52.070;8.596;2023-08-17T06:36:18;1.85;;;1.10;;
55069;SDS011;40967;52.070;8.596;2023-08-17T06:38:43;1.87;;;1.00;;
55069;SDS011;40967;52.070;8.596;2023-08-17T06:41:09;1.60;;;0.90;;
55069;SDS011;40967;52.070;8.596;2023-08-17T06:43:34;2.40;;;1.10;;
55069;SDS011;40967;52.070;8.596;2023-08-17T06:46:00;1.90;;;1.00;;
55069;SDS011;40967;52.070;8.596;2023-08-17T06:48:26;2.10;;;0.98;;
55069;SDS011;40967;52.070;8.596;2023-08-17T06:50:52;2.05;;;1.10;;
55069;SDS011;40967;52.070;8.596;2023-08-17T06:53:17;1.67;;;1.00;;
55069;SDS011;40967;52.070;8.596;2023-08-17T06:55:43;1.67;;;0.90;;
55069;SDS011;40967;52.070;8.596;2023-08-17T06:58:08;2.13;;;1.00;;
55069;SDS011;40967;52.070;8.596;2023-08-17T07:00:34;1.80;;;1.03;;
55069;SDS011;40967;52.070;8.596;2023-08-17T07:03:00;1.33;;;0.88;;
55069;SDS011;40967;52.070;8.596;2023-08-17T07:05:29;2.20;;;1.00;;
55069;SDS011;40967;52.070;8.596;2023-08-17T07:07:54;1.97;;;1.00;;
55069;SDS011;40967;52.070;8.596;2023-08-17T07:10:20;1.85;;;1.00;;
55069;SDS011;40967;52.070;8.596;2023-08-17T07:12:45;1.80;;;1.10;;
55069;SDS011;40967;52.070;8.596;2023-08-17T07:15:11;1.50;;;0.93;;
55069;SDS011;40967;52.070;8.596;2023-08-17T07:17:37;2.13;;;0.90;;
55069;SDS011;40967;52.070;8.596;2023-08-17T07:20:03;1.40;;;0.80;;
55069;SDS011;40967;52.070;8.596;2023-08-17T07:22:30;1.45;;;0.90;;
55069;SDS011;40967;52.070;8.596;2023-08-17T07:24:55;1.80;;;0.90;;
55069;SDS011;40967;52.070;8.596;2023-08-17T07:27:21;1.53;;;0.90;;
55069;SDS011;40967;52.070;8.596;2023-08-17T07:29:46;1.97;;;1.10;;
55069;SDS011;40967;52.070;8.596;2023-08-17T07:32:11;1.50;;;0.90;;
55069;SDS011;40967;52.070;8.596;2023-08-17T07:34:37;1.87;;;1.10;;
55069;SDS011;40967;52.070;8.596;2023-08-17T07:37:05;2.00;;;1.05;;
55069;SDS011;40967;52.070;8.596;2023-08-17T07:39:31;2.25;;;1.05;;
55069;SDS011;40967;52.070;8.596;2023-08-17T07:41:57;2.63;;;1.20;;
55069;SDS011;40967;52.070;8.596;2023-08-17T07:44:22;2.30;;;1.30;;
55069;SDS011;40967;52.070;8.596;2023-08-17T07:46:48;2.27;;;1.27;;
55069;SDS011;40967;52.070;8.596;2023-08-17T07:49:13;4.07;;;1.57;;
55069;SDS011;40967;52.070;8.596;2023-08-17T07:51:38;2.97;;;1.47;;
55069;SDS011;40967;52.070;8.596;2023-08-17T07:54:04;2.55;;;1.25;;
55069;SDS011;40967;52.070;8.596;2023-08-17T07:56:29;2.63;;;1.50;;
55069;SDS011;40967;52.070;8.596;2023-08-17T07:58:55;2.57;;;1.23;;
55069;SDS011;40967;52.070;8.596;2023-08-17T08:01:20;2.53;;;1.37;;
55069;SDS011;40967;52.070;8.596;2023-08-17T08:03:46;2.10;;;1.20;;
55069;SDS011;40967;52.070;8.596;2023-08-17T08:06:11;1.53;;;1.03;;
55069;SDS011;40967;52.070;8.596;2023-08-17T08:08:37;2.50;;;1.40;;
55069;SDS011;40967;52.070;8.596;2023-08-17T08:11:03;1.90;;;1.17;;
55069;SDS011;40967;52.070;8.596;2023-08-17T08:13:29;2.08;;;1.25;;
55069;SDS011;40967;52.070;8.596;2023-08-17T08:15:55;1.60;;;1.00;;
55069;SDS011;40967;52.070;8.596;2023-08-17T08:18:21;2.40;;;1.40;;
55069;SDS011;40967;52.070;8.596;2023-08-17T08:20:47;2.23;;;1.30;;
55069;SDS011;40967;52.070;8.596;2023-08-17T08:23:13;2.37;;;1.30;;
55069;SDS011;40967;52.070;8.596;2023-08-17T08:25:38;1.70;;;1.10;;
55069;SDS011;40967;52.070;8.596;2023-08-17T08:28:04;1.90;;;1.10;;
55069;SDS011;40967;52.070;8.596;2023-08-17T08:30:29;2.05;;;0.98;;
55069;SDS011;40967;52.070;8.596;2023-08-17T08:32:55;2.05;;;1.13;;
55069;SDS011;40967;52.070;8.596;2023-08-17T08:35:23;2.00;;;1.10;;
55069;SDS011;40967;52.070;8.596;2023-08-17T08:37:49;2.15;;;1.15;;
55069;SDS011;40967;52.070;8.596;2023-08-17T08:40:15;1.70;;;0.97;;
55069;SDS011;40967;52.070;8.596;2023-08-17T08:42:42;1.15;;;0.80;;
55069;SDS011;40967;52.070;8.596;2023-08-17T08:45:08;1.40;;;0.75;;
55069;SDS011;40967;52.070;8.596;2023-08-17T08:47:35;1.30;;;0.77;;
55069;SDS011;40967;52.070;8.596;2023-08-17T08:50:02;1.48;;;0.90;;
55069;SDS011;40967;52.070;8.596;2023-08-17T08:52:36;1.23;;;0.80;;
55069;SDS011;40967;52.070;8.596;2023-08-17T08:55:17;1.13;;;0.77;;
55069;SDS011;40967;52.070;8.596;2023-08-17T08:57:43;2.22;;;1.00;;
55069;SDS011;40967;52.070;8.596;2023-08-17T09:00:11;1.48;;;0.90;;
55069;SDS011;40967;52.070;8.596;2023-08-17T09:02:37;1.83;;;1.10;;
55069;SDS011;40967;52.070;8.596;2023-08-17T09:05:05;3.22;;;1.40;;
55069;SDS011;40967;52.070;8.596;2023-08-17T09:07:33;2.25;;;1.15;;
55069;SDS011;40967;52.070;8.596;2023-08-17T09:10:00;1.50;;;0.90;;
55069;SDS011;40967;52.070;8.596;2023-08-17T09:12:26;1.80;;;1.10;;
55069;SDS011;40967;52.070;8.596;2023-08-17T09:14:52;1.70;;;1.00;;
55069;SDS011;40967;52.070;8.596;2023-08-17T09:17:24;1.90;;;1.10;;
55069;SDS011;40967;52.070;8.596;2023-08-17T09:19:50;1.52;;;1.00;;
55069;SDS011;40967;52.070;8.596;2023-08-17T09:22:59;2.57;;;1.07;;
55069;SDS011;40967;52.070;8.596;2023-08-17T09:25:11;1.55;;;0.93;;
55069;SDS011;40967;52.070;8.596;2023-08-17T09:27:47;1.25;;;0.90;;
55069;SDS011;40967;52.070;8.596;2023-08-17T09:30:13;2.10;;;1.17;;
55069;SDS011;40967;52.070;8.596;2023-08-17T09:32:38;1.43;;;0.90;;
55069;SDS011;40967;52.070;8.596;2023-08-17T09:35:04;1.63;;;1.03;;
55069;SDS011;40967;52.070;8.596;2023-08-17T09:37:31;1.80;;;1.13;;
55069;SDS011;40967;52.070;8.596;2023-08-17T09:39:57;1.63;;;0.77;;
55069;SDS011;40967;52.070;8.596;2023-08-17T09:42:23;2.47;;;1.10;;
55069;SDS011;40967;52.070;8.596;2023-08-17T09:44:50;2.40;;;1.17;;
55069;SDS011;40967;52.070;8.596;2023-08-17T09:47:21;2.65;;;1.55;;
55069;SDS011;40967;52.070;8.596;2023-08-17T09:49:50;3.47;;;1.70;;
55069;SDS011;40967;52.070;8.596;2023-08-17T09:52:18;2.00;;;1.30;;
55069;SDS011;40967;52.070;8.596;2023-08-17T09:54:47;2.05;;;1.10;;
55069;SDS011;40967;52.070;8.596;2023-08-17T09:57:12;1.70;;;1.10;;
55069;SDS011;40967;52.070;8.596;2023-08-17T09:59:38;2.30;;;1.20;;
55069;SDS011;40967;52.070;8.596;2023-08-17T10:02:03;1.95;;;1.10;;
55069;SDS011;40967;52.070;8.596;2023-08-17T10:04:52;2.15;;;1.10;;
55069;SDS011;40967;52.070;8.596;2023-08-17T10:07:19;1.75;;;1.08;;
55069;SDS011;40967;52.070;8.596;2023-08-17T10:09:48;1.65;;;1.00;;
55069;SDS011;40967;52.070;8.596;2023-08-17T10:12:19;1.65;;;1.10;;
55069;SDS011;40967;52.070;8.596;2023-08-17T10:14:54;1.65;;;1.05;;
55069;SDS011;40967;52.070;8.596;2023-08-17T10:17:27;1.25;;;0.85;;
55069;SDS011;40967;52.070;8.596;2023-08-17T10:19:59;1.65;;;1.00;;
55069;SDS011;40967;52.070;8.596;2023-08-17T10:25:11;1.97;;;1.17;;
55069;SDS011;40967;52.070;8.596;2023-08-17T10:27:38;2.15;;;1.13;;
55069;SDS011;40967;52.070;8.596;2023-08-17T10:30:05;1.45;;;1.00;;
55069;SDS011;40967;52.070;8.596;2023-08-17T10:32:31;1.17;;;0.82;;
55069;SDS011;40967;52.070;8.596;2023-08-17T10:35:00;2.37;;;1.07;;
55069;SDS011;40967;52.070;8.596;2023-08-17T10:37:27;1.58;;;0.90;;
55069;SDS011;40967;52.070;8.596;2023-08-17T10:39:53;1.55;;;0.90;;
55069;SDS011;40967;52.070;8.596;2023-08-17T10:45:01;1.38;;;0.90;;
55069;SDS011;40967;52.070;8.596;2023-08-17T10:47:46;1.38;;;1.00;;
55069;SDS011;40967;52.070;8.596;2023-08-17T10:50:24;2.25;;;1.00;;
55069;SDS011;40967;52.070;8.596;2023-08-17T10:52:52;1.73;;;1.02;;
55069;SDS011;40967;52.070;8.596;2023-08-17T10:55:35;1.50;;;1.00;;
55069;SDS011;40967;52.070;8.596;2023-08-17T10:58:09;1.52;;;0.90;;
55069;SDS011;40967;52.070;8.596;2023-08-17T11:00:36;1.02;;;0.80;;
55069;SDS011;40967;52.070;8.596;2023-08-17T11:05:34;1.77;;;0.90;;
55069;SDS011;40967;52.070;8.596;2023-08-17T11:08:22;1.70;;;1.05;;
55069;SDS011;40967;52.070;8.596;2023-08-17T11:11:06;1.83;;;1.10;;
55069;SDS011;40967;52.070;8.596;2023-08-17T11:13:35;1.80;;;1.00;;
55069;SDS011;40967;52.070;8.596;2023-08-17T11:16:02;1.65;;;0.90;;
55069;SDS011;40967;52.070;8.596;2023-08-17T11:18:30;1.53;;;0.90;;
55069;SDS011;40967;52.070;8.596;2023-08-17T11:20:59;1.70;;;1.10;;
55069;SDS011;40967;52.070;8.596;2023-08-17T11:23:28;1.58;;;0.90;;
55069;SDS011;40967;52.070;8.596;2023-08-17T11:25:54;0.90;;;0.60;;
55069;SDS011;40967;52.070;8.596;2023-08-17T11:28:20;1.47;;;0.93;;
55069;SDS011;40967;52.070;8.596;2023-08-17T11:30:55;1.00;;;0.70;;
55069;SDS011;40967;52.070;8.596;2023-08-17T11:33:25;1.15;;;0.68;;
55069;SDS011;40967;52.070;8.596;2023-08-17T11:35:56;1.37;;;0.83;;
55069;SDS011;40967;52.070;8.596;2023-08-17T11:38:29;0.93;;;0.70;;
55069;SDS011;40967;52.070;8.596;2023-08-17T11:41:00;1.20;;;0.80;;
55069;SDS011;40967;52.070;8.596;2023-08-17T11:43:26;1.38;;;0.90;;
55069;SDS011;40967;52.070;8.596;2023-08-17T11:46:11;1.38;;;0.80;;
55069;SDS011;40967;52.070;8.596;2023-08-17T11:48:39;1.67;;;0.90;;
55069;SDS011;40967;52.070;8.596;2023-08-17T11:51:04;0.90;;;0.70;;
55069;SDS011;40967;52.070;8.596;2023-08-17T11:53:33;1.53;;;1.00;;
55069;SDS011;40967;52.070;8.596;2023-08-17T11:56:00;1.05;;;0.70;;
55069;SDS011;40967;52.070;8.596;2023-08-17T11:58:41;1.10;;;0.80;;
55069;SDS011;40967;52.070;8.596;2023-08-17T12:01:11;1.63;;;0.95;;
55069;SDS011;40967;52.070;8.596;2023-08-17T12:03:38;1.52;;;1.10;;
55069;SDS011;40967;52.070;8.596;2023-08-17T12:06:04;1.15;;;0.80;;
55069;SDS011;40967;52.070;8.596;2023-08-17T12:08:30;0.90;;;0.70;;
55069;SDS011;40967;52.070;8.596;2023-08-17T12:10:55;1.47;;;0.83;;
55069;SDS011;40967;52.070;8.596;2023-08-17T12:13:28;0.80;;;0.70;;
55069;SDS011;40967;52.070;8.596;2023-08-17T12:16:00;2.10;;;1.05;;
55069;SDS011;40967;52.070;8.596;2023-08-17T12:18:25;1.20;;;0.90;;
55069;SDS011;40967;52.070;8.596;2023-08-17T12:20:52;1.33;;;0.77;;
55069;SDS011;40967;52.070;8.596;2023-08-17T12:23:18;1.40;;;0.93;;
55069;SDS011;40967;52.070;8.596;2023-08-17T12:25:43;1.80;;;1.00;;
55069;SDS011;40967;52.070;8.596;2023-08-17T12:28:08;1.30;;;0.90;;
55069;SDS011;40967;52.070;8.596;2023-08-17T12:30:37;1.90;;;1.10;;
55069;SDS011;40967;52.070;8.596;2023-08-17T12:33:03;1.57;;;1.00;;
55069;SDS011;40967;52.070;8.596;2023-08-17T12:35:29;1.83;;;1.07;;
55069;SDS011;40967;52.070;8.596;2023-08-17T12:37:56;1.35;;;0.90;;
55069;SDS011;40967;52.070;8.596;2023-08-17T12:40:21;1.50;;;0.97;;
55069;SDS011;40967;52.070;8.596;2023-08-17T12:42:47;1.30;;;0.97;;
55069;SDS011;40967;52.070;8.596;2023-08-17T12:45:13;1.02;;;0.70;;
55069;SDS011;40967;52.070;8.596;2023-08-17T12:47:38;2.05;;;1.20;;
55069;SDS011;40967;52.070;8.596;2023-08-17T12:50:04;2.07;;;1.20;;
55069;SDS011;40967;52.070;8.596;2023-08-17T12:52:30;2.05;;;1.15;;
55069;SDS011;40967;52.070;8.596;2023-08-17T12:54:55;1.80;;;1.08;;
55069;SDS011;40967;52.070;8.596;2023-08-17T12:57:21;1.70;;;1.08;;
55069;SDS011;40967;52.070;8.596;2023-08-17T12:59:46;1.43;;;1.03;;
55069;SDS011;40967;52.070;8.596;2023-08-17T13:02:12;1.47;;;1.00;;
55069;SDS011;40967;52.070;8.596;2023-08-17T13:04:37;1.70;;;0.87;;
55069;SDS011;40967;52.070;8.596;2023-08-17T13:07:02;2.40;;;1.20;;
55069;SDS011;40967;52.070;8.596;2023-08-17T13:09:31;1.43;;;0.97;;
55069;SDS011;40967;52.070;8.596;2023-08-17T13:11:56;1.20;;;0.80;;
55069;SDS011;40967;52.070;8.596;2023-08-17T13:14:21;1.17;;;0.70;;
55069;SDS011;40967;52.070;8.596;2023-08-17T13:16:48;1.42;;;0.80;;
55069;SDS011;40967;52.070;8.596;2023-08-17T13:19:14;1.57;;;0.90;;
55069;SDS011;40967;52.070;8.596;2023-08-17T13:21:42;1.63;;;0.95;;
55069;SDS011;40967;52.070;8.596;2023-08-17T13:24:10;1.80;;;1.00;;
55069;SDS011;40967;52.070;8.596;2023-08-17T13:26:36;2.78;;;1.30;;
55069;SDS011;40967;52.070;8.596;2023-08-17T13:29:01;1.50;;;0.90;;
55069;SDS011;40967;52.070;8.596;2023-08-17T13:31:29;1.83;;;1.10;;
55069;SDS011;40967;52.070;8.596;2023-08-17T13:33:57;1.65;;;0.98;;
55069;SDS011;40967;52.070;8.596;2023-08-17T13:36:22;1.93;;;1.10;;
55069;SDS011;40967;52.070;8.596;2023-08-17T13:38:47;1.90;;;0.80;;
55069;SDS011;40967;52.070;8.596;2023-08-17T13:41:13;2.10;;;0.80;;
55069;SDS011;40967;52.070;8.596;2023-08-17T13:43:38;1.77;;;0.90;;
55069;SDS011;40967;52.070;8.596;2023-08-17T13:46:04;1.33;;;0.80;;
55069;SDS011;40967;52.070;8.596;2023-08-17T13:48:29;1.52;;;0.80;;
55069;SDS011;40967;52.070;8.596;2023-08-17T13:50:55;2.20;;;0.93;;
55069;SDS011;40967;52.070;8.596;2023-08-17T13:53:20;1.83;;;0.90;;
55069;SDS011;40967;52.070;8.596;2023-08-17T13:55:45;1.37;;;0.77;;
55069;SDS011;40967;52.070;8.596;2023-08-17T13:58:11;1.77;;;0.80;;
55069;SDS011;40967;52.070;8.596;2023-08-17T14:00:37;1.40;;;0.82;;
55069;SDS011;40967;52.070;8.596;2023-08-17T14:03:03;1.73;;;0.90;;
55069;SDS011;40967;52.070;8.596;2023-08-17T14:05:28;1.90;;;0.90;;
55069;SDS011;40967;52.070;8.596;2023-08-17T14:07:54;1.73;;;0.90;;
55069;SDS011;40967;52.070;8.596;2023-08-17T14:10:19;2.40;;;1.03;;
55069;SDS011;40967;52.070;8.596;2023-08-17T14:12:45;1.95;;;0.90;;
55069;SDS011;40967;52.070;8.596;2023-08-17T14:15:10;1.50;;;1.00;;
55069;SDS011;40967;52.070;8.596;2023-08-17T14:17:36;2.17;;;0.98;;
55069;SDS011;40967;52.070;8.596;2023-08-17T14:20:02;1.88;;;1.02;;
55069;SDS011;40967;52.070;8.596;2023-08-17T14:22:29;2.35;;;1.10;;
55069;SDS011;40967;52.070;8.596;2023-08-17T14:24:54;3.10;;;1.30;;
55069;SDS011;40967;52.070;8.596;2023-08-17T14:27:20;2.60;;;1.23;;
55069;SDS011;40967;52.070;8.596;2023-08-17T14:29:45;1.97;;;1.00;;
55069;SDS011;40967;52.070;8.596;2023-08-17T14:32:10;1.97;;;1.00;;
55069;SDS011;40967;52.070;8.596;2023-08-17T14:34:36;2.10;;;0.90;;
55069;SDS011;40967;52.070;8.596;2023-08-17T14:37:03;2.13;;;1.00;;
55069;SDS011;40967;52.070;8.596;2023-08-17T14:39:32;2.28;;;0.90;;
55069;SDS011;40967;52.070;8.596;2023-08-17T14:41:57;1.73;;;1.00;;
55069;SDS011;40967;52.070;8.596;2023-08-17T14:44:23;1.93;;;1.10;;
55069;SDS011;40967;52.070;8.596;2023-08-17T14:46:48;3.03;;;1.27;;
55069;SDS011;40967;52.070;8.596;2023-08-17T14:49:13;1.83;;;1.07;;
55069;SDS011;40967;52.070;8.596;2023-08-17T14:51:39;2.57;;;1.30;;
55069;SDS011;40967;52.070;8.596;2023-08-17T14:54:08;2.15;;;1.13;;
55069;SDS011;40967;52.070;8.596;2023-08-17T14:56:43;2.20;;;1.05;;